Time;durP1;ratioP1;P1;durP2;ratioP2;P2;SDS_P1;SDS_P2;PMS_P1;PMS_P2;Temp;Humidity;BMP_temperature;BMP_pressure;BME280_temperature;BME280_humidity;BME280_pressure;Samples;Min_cycle;Max_cycle;Signal;HPM_P1;HPM_P2
2022/08/11 00:00:42;;;;;;;4.60;2.47;;;;;;;;;;5088327;28;20013;-84
2022/08/11 00:03:10;;;;;;;4.25;2.10;;;;;;;;;;5087953;28;20119;-84
2022/08/11 00:05:46;;;;;;;5.93;2.08;;;;;;;;;;5069933;28;20063;-84
2022/08/11 00:08:21;;;;;;;3.75;2.10;;;;;;;;;;5087941;28;20036;-84
2022/08/11 00:10:59;;;;;;;4.38;2.20;;;;;;;;;;5086690;28;20036;-84
2022/08/11 00:13:46;;;;;;;4.50;2.10;;;;;;;;;;5087258;28;20036;-84
2022/08/11 00:16:20;;;;;;;4.15;2.03;;;;;;;;;;5086663;28;20051;-84
2022/08/11 00:18:54;;;;;;;6.85;2.20;;;;;;;;;;5087110;28;20029;-84
2022/08/11 00:21:21;;;;;;;2.92;1.92;;;;;;;;;;5087362;28;20032;-84
2022/08/11 00:23:58;;;;;;;3.65;2.20;;;;;;;;;;5053188;28;20032;-84
2022/08/11 00:26:25;;;;;;;5.65;2.10;;;;;;;;;;5087700;28;20048;-84
2022/08/11 00:28:51;;;;;;;2.80;1.83;;;;;;;;;;5069774;28;20032;-84
2022/08/11 00:31:30;;;;;;;4.28;2.00;;;;;;;;;;5087026;28;20032;-84
2022/08/11 00:33:59;;;;;;;2.47;2.22;;;;;;;;;;5069291;28;20036;-81
2022/08/11 00:36:41;;;;;;;2.95;2.03;;;;;;;;;;5086996;28;20043;-84
2022/08/11 00:39:09;;;;;;;4.15;2.17;;;;;;;;;;5086527;28;20039;-83
2022/08/11 00:41:42;;;;;;;4.55;2.08;;;;;;;;;;5087264;28;20028;-84
2022/08/11 00:44:45;;;;;;;2.22;2.03;;;;;;;;;;5086221;28;20032;-84
2022/08/11 00:47:20;;;;;;;6.88;2.10;;;;;;;;;;5087167;28;20040;-84
2022/08/11 00:50:27;;;;;;;2.85;2.10;;;;;;;;;;5086261;28;20032;-84
2022/08/11 00:53:02;;;;;;;2.53;2.00;;;;;;;;;;5025151;28;20138;-83
2022/08/11 00:55:33;;;;;;;4.22;2.00;;;;;;;;;;5024080;28;20030;-83
2022/08/11 00:58:20;;;;;;;3.40;2.10;;;;;;;;;;5060356;28;20070;-83
2022/08/11 01:01:17;;;;;;;2.65;2.10;;;;;;;;;;5085952;28;20485;-83
2022/08/11 01:04:20;;;;;;;2.70;2.13;;;;;;;;;;5086468;28;20134;-83
2022/08/11 01:06:48;;;;;;;3.73;2.53;;;;;;;;;;5086740;28;20075;-82
2022/08/11 01:09:35;;;;;;;3.97;2.30;;;;;;;;;;5085196;28;20348;-83
2022/08/11 01:12:39;;;;;;;3.58;2.10;;;;;;;;;;5086061;28;20036;-83
2022/08/11 01:15:36;;;;;;;3.97;2.10;;;;;;;;;;5086189;28;20036;-82
2022/08/11 01:18:20;;;;;;;5.07;1.92;;;;;;;;;;5086913;28;20040;-83
2022/08/11 01:21:16;;;;;;;3.42;2.20;;;;;;;;;;5086760;28;20036;-83
2022/08/11 01:24:06;;;;;;;2.40;2.00;;;;;;;;;;5086713;28;20032;-83
2022/08/11 01:26:50;;;;;;;2.50;2.10;;;;;;;;;;5087137;28;20040;-83
2022/08/11 01:29:53;;;;;;;2.75;2.15;;;;;;;;;;5086340;28;20033;-83
2022/08/11 01:32:46;;;;;;;2.92;2.13;;;;;;;;;;5068584;28;20047;-83
2022/08/11 01:36:06;;;;;;;2.53;2.10;;;;;;;;;;5068551;28;20095;-83
2022/08/11 01:38:50;;;;;;;2.90;2.08;;;;;;;;;;5024383;28;20030;-83
2022/08/11 01:45:00;;;;;;;2.67;2.00;;;;;;;;;;5085821;28;20123;-83
2022/08/11 01:47:53;;;;;;;4.25;1.70;;;;;;;;;;5068579;28;20043;-83
2022/08/11 01:51:00;;;;;;;3.55;2.13;;;;;;;;;;5041280;28;20052;-83
2022/08/11 01:53:37;;;;;;;2.40;1.90;;;;;;;;;;5068918;28;20040;-83
2022/08/11 01:56:20;;;;;;;5.22;2.03;;;;;;;;;;5086608;28;20040;-83
2022/08/11 01:58:58;;;;;;;2.92;2.10;;;;;;;;;;5086149;28;20036;-83
2022/08/11 02:01:57;;;;;;;2.42;1.98;;;;;;;;;;5086665;28;20029;-83
2022/08/11 02:05:00;;;;;;;2.80;2.10;;;;;;;;;;5085114;28;20028;-83
2022/08/11 02:07:34;;;;;;;3.85;2.20;;;;;;;;;;5086327;28;20028;-83
2022/08/11 02:13:13;;;;;;;3.40;2.20;;;;;;;;;;5089213;28;20041;-83
2022/08/11 02:15:46;;;;;;;3.97;2.13;;;;;;;;;;5072187;28;20028;-83
2022/08/11 02:23:38;;;;;;;4.32;2.03;;;;;;;;;;5090860;28;20119;-83
2022/08/11 02:24:08;;;;;;;3.25;2.00;;;;;;;;;;5089120;28;20178;-82
2022/08/11 02:26:42;;;;;;;2.90;2.03;;;;;;;;;;5089117;28;20032;-84
2022/08/11 02:29:19;;;;;;;3.15;2.33;;;;;;;;;;5071591;28;20041;-84
2022/08/11 02:35:10;;;;;;;3.83;2.00;;;;;;;;;;5088916;28;20039;-83
2022/08/11 02:37:47;;;;;;;4.47;2.30;;;;;;;;;;5089469;28;20056;-83
2022/08/11 02:40:43;;;;;;;3.15;2.10;;;;;;;;;;5089153;28;20032;-84
2022/08/11 02:43:22;;;;;;;4.85;2.30;;;;;;;;;;5090112;28;20049;-84
2022/08/11 02:45:55;;;;;;;3.92;2.17;;;;;;;;;;5086946;28;20043;-84
2022/08/11 02:51:57;;;;;;;3.95;2.55;;;;;;;;;;5088578;28;20035;-83
2022/08/11 02:54:53;;;;;;;2.65;1.92;;;;;;;;;;5088019;28;20054;-84
2022/08/11 02:57:32;;;;;;;4.20;2.25;;;;;;;;;;5080401;28;20376;-83
2022/08/11 03:00:10;;;;;;;2.60;2.20;;;;;;;;;;5088132;28;20039;-83
2022/08/11 03:03:01;;;;;;;2.40;2.13;;;;;;;;;;5088568;28;20044;-84
2022/08/11 03:06:11;;;;;;;2.85;2.13;;;;;;;;;;5087365;28;20034;-83
2022/08/11 03:08:51;;;;;;;3.05;2.00;;;;;;;;;;5059364;28;20052;-83
2022/08/11 03:18:23;;;;;;;2.58;1.90;;;;;;;;;;5088631;28;20062;-83
2022/08/11 03:21:20;;;;;;;2.70;1.97;;;;;;;;;;5088238;28;20051;-84
2022/08/11 03:24:07;;;;;;;3.80;2.35;;;;;;;;;;5087585;28;20032;-83
2022/08/11 03:27:01;;;;;;;3.55;1.83;;;;;;;;;;5070058;28;20058;-83
2022/08/11 03:29:36;;;;;;;2.92;2.00;;;;;;;;;;5069899;28;20036;-82
2022/08/11 03:32:09;;;;;;;3.60;2.20;;;;;;;;;;5087699;28;20036;-83
2022/08/11 03:34:39;;;;;;;3.30;2.15;;;;;;;;;;5086859;28;20119;-83
2022/08/11 03:37:47;;;;;;;4.55;2.00;;;;;;;;;;5087852;28;20466;-83
2022/08/11 03:40:08;;;;;;;2.90;2.10;;;;;;;;;;5087418;28;20028;-83
2022/08/11 03:42:42;;;;;;;3.45;2.20;;;;;;;;;;5069783;28;20033;-83
2022/08/11 03:45:30;;;;;;;3.00;2.05;;;;;;;;;;5069417;28;20090;-83
2022/08/11 03:48:14;;;;;;;4.38;2.08;;;;;;;;;;5087762;28;20033;-83
2022/08/11 03:50:57;;;;;;;3.63;2.28;;;;;;;;;;5087605;28;20047;-83
2022/08/11 03:53:54;;;;;;;4.97;2.35;;;;;;;;;;5088211;28;20016;-83
2022/08/11 03:56:57;;;;;;;4.85;2.30;;;;;;;;;;5069850;28;20028;-82
2022/08/11 03:59:52;;;;;;;4.28;2.30;;;;;;;;;;5069857;28;20038;-82
2022/08/11 04:03:09;;;;;;;3.67;2.38;;;;;;;;;;5064691;28;20044;-82
2022/08/11 04:05:43;;;;;;;5.53;1.90;;;;;;;;;;5053558;28;20037;-82
2022/08/11 04:08:46;;;;;;;3.30;2.05;;;;;;;;;;5087617;28;20111;-82
2022/08/11 04:11:27;;;;;;;3.10;2.03;;;;;;;;;;5069397;28;20076;-82
2022/08/11 04:17:18;;;;;;;2.45;2.17;;;;;;;;;;5070532;28;20051;-82
2022/08/11 04:20:17;;;;;;;3.22;2.15;;;;;;;;;;5087428;28;20028;-82
2022/08/11 04:23:40;;;;;;;3.45;2.10;;;;;;;;;;5087320;28;20036;-82
2022/08/11 04:26:34;;;;;;;4.25;2.10;;;;;;;;;;5059461;28;20024;-82
2022/08/11 04:29:32;;;;;;;2.47;2.00;;;;;;;;;;5087679;28;20066;-82
2022/08/11 04:32:00;;;;;;;2.53;2.10;;;;;;;;;;5087035;28;20054;-82
2022/08/11 04:34:53;;;;;;;3.00;2.30;;;;;;;;;;5069386;28;20024;-82
2022/08/11 04:38:01;;;;;;;3.20;2.10;;;;;;;;;;5086366;28;20036;-82
2022/08/11 04:40:51;;;;;;;6.05;2.28;;;;;;;;;;5086437;28;20111;-82
2022/08/11 04:43:48;;;;;;;3.10;2.05;;;;;;;;;;5086826;28;20036;-82
2022/08/11 04:46:51;;;;;;;4.97;2.42;;;;;;;;;;5068266;28;20115;-82
2022/08/11 05:02:34;;;;;;;4.00;2.60;;;;;;;;;;5070158;28;20070;-82
2022/08/11 05:05:30;;;;;;;3.67;2.70;;;;;;;;;;5058085;28;20068;-82
2022/08/11 05:08:14;;;;;;;4.75;2.50;;;;;;;;;;5087409;28;20040;-83
2022/08/11 05:10:58;;;;;;;4.68;2.80;;;;;;;;;;5086713;28;20036;-82
2022/08/11 05:36:31;;;;;;;4.03;2.60;;;;;;;;;;5068418;28;20062;-83
2022/08/11 05:58:32;;;;;;;4.55;2.92;;;;;;;;;;5086782;28;20393;-85
2022/08/11 06:00:58;;;;;;;6.57;2.95;;;;;;;;;;5086902;28;20033;-83
2022/08/11 06:03:27;;;;;;;5.57;2.65;;;;;;;;;;5086857;28;20021;-84
2022/08/11 06:05:53;;;;;;;4.85;2.88;;;;;;;;;;5067720;28;20040;-84
2022/08/11 06:08:27;;;;;;;4.80;2.80;;;;;;;;;;5052996;28;20036;-83
2022/08/11 06:11:00;;;;;;;3.85;2.40;;;;;;;;;;5087690;28;20048;-83
2022/08/11 06:13:26;;;;;;;5.35;2.60;;;;;;;;;;5090511;28;20039;-83
2022/08/11 06:15:54;;;;;;;3.40;2.40;;;;;;;;;;5068180;28;20041;-83
2022/08/11 06:18:20;;;;;;;2.80;2.50;;;;;;;;;;5086478;28;20101;-84
2022/08/11 06:20:47;;;;;;;7.45;2.70;;;;;;;;;;5083351;28;20040;-84
2022/08/11 06:23:16;;;;;;;4.78;2.40;;;;;;;;;;5066813;28;20573;-84
2022/08/11 06:25:42;;;;;;;3.67;2.33;;;;;;;;;;5085497;28;20481;-85
2022/08/11 06:28:08;;;;;;;3.88;2.60;;;;;;;;;;5050971;28;20031;-84
2022/08/11 06:30:39;;;;;;;3.45;2.35;;;;;;;;;;5087471;28;20485;-83
2022/08/11 06:33:20;;;;;;;3.63;2.58;;;;;;;;;;5072485;28;20034;-83
2022/08/11 06:36:20;;;;;;;5.88;2.95;;;;;;;;;;5073682;28;20048;-84
2022/08/11 06:39:19;;;;;;;6.22;2.78;;;;;;;;;;5086540;28;20041;-83
2022/08/11 06:41:50;;;;;;;3.42;2.40;;;;;;;;;;5068784;28;20099;-84
2022/08/11 06:44:51;;;;;;;4.78;2.38;;;;;;;;;;5071153;28;20072;-85
2022/08/11 06:47:19;;;;;;;3.72;2.60;;;;;;;;;;5077257;28;20036;-84
2022/08/11 06:52:34;;;;;;;3.13;2.35;;;;;;;;;;5089465;28;20096;-84
2022/08/11 06:55:05;;;;;;;3.55;2.22;;;;;;;;;;5072203;28;20058;-85
2022/08/11 07:00:27;;;;;;;3.58;2.47;;;;;;;;;;5090215;28;20025;-84
2022/08/11 07:03:08;;;;;;;4.50;2.60;;;;;;;;;;5090386;28;20064;-84
2022/08/11 07:05:36;;;;;;;6.22;2.35;;;;;;;;;;5089261;28;20033;-85
2022/08/11 07:17:10;;;;;;;6.38;2.55;;;;;;;;;;5078567;28;20044;-86
2022/08/11 07:30:51;;;;;;;6.35;2.65;;;;;;;;;;5079206;28;20115;-88
2022/08/11 07:33:31;;;;;;;3.10;2.55;;;;;;;;;;5080270;28;20041;-86
2022/08/11 07:35:59;;;;;;;2.92;2.30;;;;;;;;;;5061217;28;20388;-85
2022/08/11 07:38:43;;;;;;;6.88;2.83;;;;;;;;;;5079103;28;20055;-84
2022/08/11 07:41:17;;;;;;;4.68;2.70;;;;;;;;;;5080013;28;20124;-84
2022/08/11 07:43:48;;;;;;;3.55;2.33;;;;;;;;;;5079772;28;20405;-84
2022/08/11 07:54:37;;;;;;;5.95;2.90;;;;;;;;;;5079339;28;20071;-84
2022/08/11 08:19:15;;;;;;;3.85;2.50;;;;;;;;;;5081442;28;20097;-83
2022/08/11 08:21:43;;;;;;;5.68;2.47;;;;;;;;;;5080578;28;20051;-84
2022/08/11 08:24:09;;;;;;;7.05;2.60;;;;;;;;;;5062013;28;20369;-84
2022/08/11 08:32:10;;;;;;;4.03;2.40;;;;;;;;;;5063378;28;20058;-83
2022/08/11 08:34:39;;;;;;;4.13;2.50;;;;;;;;;;5082098;28;20580;-85
2022/08/11 08:37:06;;;;;;;6.40;2.58;;;;;;;;;;5082518;28;20067;-84
2022/08/11 08:39:36;;;;;;;4.15;2.72;;;;;;;;;;5063066;28;20408;-84
2022/08/11 08:42:09;;;;;;;4.88;2.40;;;;;;;;;;5083533;28;20123;-84
2022/08/11 08:44:38;;;;;;;;;;;;;;;;;;5081402;28;20036;-85
2022/08/11 08:47:05;;;;;;;6.43;2.75;;;;;;;;;;5078785;28;19912;-84
2022/08/11 08:49:34;;;;;;;4.03;2.67;;;;;;;;;;5080927;28;20058;-86
2022/08/11 08:52:03;;;;;;;5.57;2.50;;;;;;;;;;5061352;28;20036;-85
2022/08/11 08:54:35;;;;;;;5.20;2.50;;;;;;;;;;5060759;28;20404;-86
2022/08/11 08:57:04;;;;;;;4.97;2.37;;;;;;;;;;5081907;28;20092;-86
2022/08/11 08:59:31;;;;;;;3.35;2.30;;;;;;;;;;5079505;28;20047;-86
2022/08/11 09:02:04;;;;;;;3.30;2.53;;;;;;;;;;5061358;28;20037;-84
2022/08/11 09:04:30;;;;;;;5.45;2.95;;;;;;;;;;5040746;28;20041;-84
2022/08/11 09:06:59;;;;;;;4.80;2.75;;;;;;;;;;5075814;28;20041;-84
2022/08/11 09:09:25;;;;;;;5.88;2.55;;;;;;;;;;5074245;28;20048;-84
2022/08/11 09:11:52;;;;;;;8.25;2.50;;;;;;;;;;5076119;28;20416;-84
2022/08/11 09:14:22;;;;;;;7.43;2.50;;;;;;;;;;5075526;28;20412;-85
2022/08/11 09:16:50;;;;;;;3.53;2.67;;;;;;;;;;5057779;28;20047;-86
2022/08/11 09:19:19;;;;;;;4.70;2.50;;;;;;;;;;5076068;28;20040;-85
2022/08/11 09:27:21;;;;;;;4.55;2.60;;;;;;;;;;5075197;28;20036;-85
2022/08/11 09:29:47;;;;;;;7.97;2.50;;;;;;;;;;5058531;28;20043;-85
2022/08/11 09:32:14;;;;;;;4.72;2.80;;;;;;;;;;5082888;28;20016;-86
2022/08/11 09:34:40;;;;;;;7.80;2.67;;;;;;;;;;5081759;28;20500;-86
2022/08/11 09:45:23;;;;;;;5.75;2.58;;;;;;;;;;5081825;28;20040;-85
2022/08/11 09:47:49;;;;;;;3.55;2.50;;;;;;;;;;5065686;28;20032;-86
2022/08/11 09:50:15;;;;;;;3.83;2.67;;;;;;;;;;5084619;28;20487;-85
2022/08/11 09:52:44;;;;;;;5.28;2.30;;;;;;;;;;5083436;28;20036;-86
2022/08/11 09:55:13;;;;;;;4.97;2.30;;;;;;;;;;5062957;28;20035;-86
2022/08/11 10:00:36;;;;;;;5.38;2.63;;;;;;;;;;5066005;28;20032;-86
2022/08/11 10:03:05;;;;;;;4.10;2.50;;;;;;;;;;5084958;28;20039;-86
2022/08/11 10:08:18;;;;;;;5.32;2.50;;;;;;;;;;5085560;28;20036;-85
2022/08/11 10:10:45;;;;;;;4.38;2.65;;;;;;;;;;5083163;28;20088;-86
2022/08/11 10:13:17;;;;;;;4.15;2.70;;;;;;;;;;5067551;28;20040;-85
2022/08/11 10:15:45;;;;;;;4.63;2.50;;;;;;;;;;5084421;28;20040;-87
2022/08/11 10:18:41;;;;;;;5.05;2.40;;;;;;;;;;5085198;28;20052;-86
2022/08/11 10:21:12;;;;;;;4.72;2.30;;;;;;;;;;5085399;28;20032;-86
2022/08/11 10:34:46;;;;;;;3.58;2.22;;;;;;;;;;5087990;28;20044;-85
2022/08/11 10:37:14;;;;;;;7.88;2.40;;;;;;;;;;5089099;28;20036;-86
2022/08/11 10:39:41;;;;;;;3.13;2.30;;;;;;;;;;5071207;28;20020;-86
2022/08/11 10:44:55;;;;;;;4.88;2.30;;;;;;;;;;5089461;28;20069;-86
2022/08/11 10:47:34;;;;;;;5.82;2.40;;;;;;;;;;5070815;28;20041;-86
2022/08/11 11:01:07;;;;;;;3.92;2.30;;;;;;;;;;5069416;28;20051;-85
2022/08/11 11:03:35;;;;;;;5.35;2.55;;;;;;;;;;5087568;28;20032;-84
2022/08/11 11:06:10;;;;;;;3.83;2.33;;;;;;;;;;5052415;28;20178;-86
2022/08/11 11:08:54;;;;;;;8.48;2.67;;;;;;;;;;5087675;28;20136;-85
2022/08/11 11:19:37;;;;;;;3.63;2.33;;;;;;;;;;5069221;28;20040;-85
2022/08/11 11:22:37;;;;;;;3.00;2.28;;;;;;;;;;5085352;28;20099;-84
2022/08/11 11:25:13;;;;;;;5.28;2.28;;;;;;;;;;5067270;28;20517;-86
2022/08/11 11:27:47;;;;;;;4.53;2.20;;;;;;;;;;5087468;28;20050;-86
2022/08/11 11:30:14;;;;;;;4.00;2.22;;;;;;;;;;5087150;28;20070;-86
2022/08/11 11:32:48;;;;;;;4.30;2.30;;;;;;;;;;5086985;28;20035;-86
2022/08/11 11:35:43;;;;;;;5.10;2.50;;;;;;;;;;5086849;28;20467;-85
2022/08/11 11:38:09;;;;;;;4.03;2.30;;;;;;;;;;5069647;28;20118;-85
2022/08/11 11:40:37;;;;;;;3.78;2.20;;;;;;;;;;5068066;28;20032;-86
2022/08/11 11:43:04;;;;;;;6.75;2.30;;;;;;;;;;5087419;28;20029;-86
2022/08/11 11:45:30;;;;;;;5.07;2.50;;;;;;;;;;5068404;28;20040;-87
2022/08/11 11:47:58;;;;;;;4.20;2.28;;;;;;;;;;5085639;28;20060;-87
2022/08/11 11:50:27;;;;;;;5.47;2.38;;;;;;;;;;5082226;28;20123;-86
2022/08/11 11:52:54;;;;;;;5.88;2.30;;;;;;;;;;5084800;28;20040;-86
2022/08/11 11:55:24;;;;;;;6.35;2.58;;;;;;;;;;5086317;28;20045;-86
2022/08/11 12:03:22;;;;;;;3.15;2.28;;;;;;;;;;5087105;28;20032;-85
2022/08/11 12:05:51;;;;;;;3.42;2.20;;;;;;;;;;5068336;28;20028;-86
2022/08/11 12:08:18;;;;;;;3.88;2.17;;;;;;;;;;5051706;28;20033;-86
2022/08/11 12:13:39;;;;;;;3.55;2.30;;;;;;;;;;5066564;28;20032;-85
2022/08/11 12:13:41;;;;;;;4.68;2.20;;;;;;;;;;5086991;28;20032;-86
2022/08/11 12:16:11;;;;;;;3.58;2.35;;;;;;;;;;5086956;28;20063;-86
2022/08/11 12:18:39;;;;;;;2.95;2.22;;;;;;;;;;5085862;28;20028;-85
2022/08/11 12:21:07;;;;;;;4.25;2.33;;;;;;;;;;5066569;28;20036;-85
2022/08/11 12:29:10;;;;;;;5.03;2.30;;;;;;;;;;5084204;28;20036;-86
2022/08/11 12:31:38;;;;;;;7.72;2.20;;;;;;;;;;5084857;28;20197;-85
2022/08/11 12:34:09;;;;;;;4.32;2.28;;;;;;;;;;5085296;28;20047;-86
2022/08/11 12:36:45;;;;;;;6.18;2.20;;;;;;;;;;5081034;28;20036;-85
2022/08/11 12:39:17;;;;;;;4.93;2.20;;;;;;;;;;5061617;28;20039;-86
2022/08/11 12:47:18;;;;;;;5.22;2.17;;;;;;;;;;5080283;28;20039;-85
2022/08/11 12:52:42;;;;;;;2.22;1.80;;;;;;;;;;5077500;28;20119;-87
2022/08/11 12:55:11;;;;;;;5.15;2.10;;;;;;;;;;5076657;28;20036;-85
2022/08/11 13:06:05;;;;;;;8.00;2.22;;;;;;;;;;5059121;28;20028;-83
2022/08/11 13:08:36;;;;;;;5.22;2.30;;;;;;;;;;5077646;28;20089;-86
2022/08/11 13:13:49;;;;;;;3.03;1.80;;;;;;;;;;5076921;28;20064;-83
2022/08/11 13:16:16;;;;;;;4.28;1.70;;;;;;;;;;5074382;28;20028;-83
2022/08/11 13:18:43;;;;;;;5.82;2.13;;;;;;;;;;5074874;28;20037;-83
2022/08/11 13:21:12;;;;;;;2.83;1.88;;;;;;;;;;5075194;28;20033;-83
2022/08/11 13:23:39;;;;;;;5.03;2.03;;;;;;;;;;5075132;28;20028;-83
2022/08/11 13:26:07;;;;;;;4.40;1.90;;;;;;;;;;5074654;28;20763;-83
2022/08/11 13:28:38;;;;;;;4.68;1.80;;;;;;;;;;5056974;28;20064;-83
2022/08/11 13:31:10;;;;;;;4.22;1.90;;;;;;;;;;5075284;28;20098;-82
2022/08/11 13:33:55;;;;;;;4.70;1.75;;;;;;;;;;5057736;28;20067;-82
2022/08/11 13:36:26;;;;;;;3.08;1.88;;;;;;;;;;5074378;28;20041;-82
2022/08/11 13:38:53;;;;;;;4.38;1.67;;;;;;;;;;5074444;28;20032;-83
2022/08/11 13:41:37;;;;;;;4.35;1.70;;;;;;;;;;5074597;28;20036;-83
2022/08/11 13:44:15;;;;;;;2.83;1.80;;;;;;;;;;5055944;28;20068;-82
2022/08/11 13:46:42;;;;;;;3.05;1.73;;;;;;;;;;5074806;28;20119;-82
2022/08/11 13:49:09;;;;;;;5.68;1.83;;;;;;;;;;5040440;28;20092;-83
2022/08/11 13:51:37;;;;;;;5.68;1.70;;;;;;;;;;5056012;28;20040;-82
2022/08/11 13:54:14;;;;;;;2.45;1.55;;;;;;;;;;5073725;28;20115;-81
2022/08/11 13:56:44;;;;;;;3.53;2.05;;;;;;;;;;5074333;28;20504;-83
2022/08/11 13:59:11;;;;;;;4.55;1.77;;;;;;;;;;5055949;28;20033;-82
2022/08/11 14:01:39;;;;;;;2.53;1.70;;;;;;;;;;5073044;28;20047;-83
2022/08/11 14:04:10;;;;;;;2.85;1.80;;;;;;;;;;5056084;28;20033;-82
2022/08/11 14:06:40;;;;;;;2.78;1.65;;;;;;;;;;5056138;28;20477;-82
2022/08/11 14:09:08;;;;;;;3.45;1.70;;;;;;;;;;5073443;28;20064;-83
2022/08/11 14:14:23;;;;;;;2.40;1.73;;;;;;;;;;5058472;28;20090;-80
2022/08/11 14:16:52;;;;;;;4.45;1.83;;;;;;;;;;5060114;28;20556;-84
2022/08/11 14:19:22;;;;;;;5.63;1.90;;;;;;;;;;5043269;28;20028;-84
2022/08/11 14:22:05;;;;;;;4.13;1.70;;;;;;;;;;5077839;28;20048;-84
2022/08/11 14:24:33;;;;;;;3.95;1.67;;;;;;;;;;5059325;28;20508;-84
2022/08/11 14:26:59;;;;;;;4.35;1.90;;;;;;;;;;5077857;28;20036;-83
2022/08/11 14:29:27;;;;;;;4.57;1.55;;;;;;;;;;5080646;28;20035;-81
2022/08/11 14:31:55;;;;;;;3.72;1.92;;;;;;;;;;5067684;28;20044;-84
2022/08/11 14:34:23;;;;;;;2.60;1.67;;;;;;;;;;5088854;28;20060;-87
2022/08/11 14:37:10;;;;;;;4.15;1.92;;;;;;;;;;5093180;28;20062;-89
2022/08/11 14:47:03;;;;;;;4.80;1.70;;;;;;;;;;5089083;28;20029;-82
2022/08/11 14:48:23;;;;;;;2.58;1.58;;;;;;;;;;5072057;28;20086;-88
2022/08/11 14:50:48;;;;;;;3.42;1.55;;;;;;;;;;5071990;28;20143;-87
2022/08/11 14:53:14;;;;;;;3.33;1.70;;;;;;;;;;5069523;28;20051;-83
2022/08/11 14:58:32;;;;;;;2.95;1.80;;;;;;;;;;5086243;28;20036;-86
2022/08/11 15:00:59;;;;;;;8.32;1.70;;;;;;;;;;5087593;28;20089;-86
2022/08/11 15:03:27;;;;;;;2.63;1.73;;;;;;;;;;5087068;28;20029;-88
2022/08/11 15:05:56;;;;;;;6.63;1.80;;;;;;;;;;5083414;28;20032;-90
2022/08/11 15:09:05;;;;;;;3.95;1.90;;;;;;;;;;5083174;28;20051;-88
2022/08/11 15:14:01;;;;;;;4.82;1.92;;;;;;;;;;5082279;28;20040;-86
2022/08/11 15:19:12;;;;;;;4.40;1.70;;;;;;;;;;5079799;28;20039;-87
2022/08/11 15:24:23;;;;;;;6.78;1.77;;;;;;;;;;5080648;28;20048;-87
2022/08/11 15:38:00;;;;;;;4.25;1.80;;;;;;;;;;5080453;28;20051;-87
2022/08/11 15:46:32;;;;;;;3.45;1.77;;;;;;;;;;5063563;28;20036;-85
2022/08/11 15:49:19;;;;;;;2.67;1.70;;;;;;;;;;5081544;28;20062;-86
2022/08/11 15:51:55;;;;;;;7.18;1.70;;;;;;;;;;5062747;28;20029;-86
2022/08/11 15:54:25;;;;;;;3.90;1.77;;;;;;;;;;5081255;28;20032;-85
2022/08/11 15:56:54;;;;;;;6.05;1.88;;;;;;;;;;5082031;28;20497;-86
2022/08/11 16:04:54;;;;;;;5.82;1.70;;;;;;;;;;5079833;28;20036;-87
2022/08/11 16:07:25;;;;;;;4.20;1.88;;;;;;;;;;5062254;28;20036;-88
2022/08/11 16:10:10;;;;;;;4.15;2.00;;;;;;;;;;5077772;28;20033;-89
2022/08/11 16:16:12;;;;;;;3.50;1.90;;;;;;;;;;5045257;28;20036;-86
2022/08/11 16:18:17;;;;;;;5.78;1.67;;;;;;;;;;5080049;28;20036;-87
2022/08/11 16:20:44;;;;;;;11.15;1.85;;;;;;;;;;5079643;28;20024;-87
2022/08/11 16:23:10;;;;;;;6.15;1.80;;;;;;;;;;5079457;28;20036;-87
2022/08/11 16:25:36;;;;;;;4.72;1.80;;;;;;;;;;5078767;28;20028;-87
2022/08/11 16:28:05;;;;;;;2.92;1.83;;;;;;;;;;5061785;28;20562;-86
2022/08/11 16:30:32;;;;;;;6.28;1.63;;;;;;;;;;5060794;28;20029;-87
2022/08/11 16:32:59;;;;;;;5.43;1.90;;;;;;;;;;5079619;28;20493;-83
2022/08/11 16:40:59;;;;;;;6.50;1.70;;;;;;;;;;5080501;28;20040;-85
2022/08/11 16:49:04;;;;;;;4.93;1.80;;;;;;;;;;5082999;28;20056;-85
2022/08/11 16:51:31;;;;;;;3.55;2.05;;;;;;;;;;5063016;28;20095;-85
2022/08/11 16:53:57;;;;;;;4.47;2.00;;;;;;;;;;5080340;28;20046;-83
2022/08/11 16:56:35;;;;;;;5.03;1.90;;;;;;;;;;5059914;28;20481;-84
2022/08/11 16:59:15;;;;;;;4.03;1.95;;;;;;;;;;5059844;28;20040;-84
2022/08/11 17:01:46;;;;;;;5.18;1.80;;;;;;;;;;5076983;28;20036;-84
2022/08/11 17:18:38;;;;;;;5.07;2.25;;;;;;;;;;5078092;28;20499;-87
2022/08/11 17:21:02;;;;;;;2.33;1.77;;;;;;;;;;5072884;28;20054;-85
2022/08/11 17:23:45;;;;;;;3.97;1.85;;;;;;;;;;5075496;28;20016;-86
2022/08/11 17:26:15;;;;;;;4.50;2.08;;;;;;;;;;5070018;28;20033;-87
2022/08/11 17:28:41;;;;;;;2.30;1.90;;;;;;;;;;5056832;28;20033;-86
2022/08/11 17:36:43;;;;;;;2.80;2.00;;;;;;;;;;5074497;28;20032;-86
2022/08/11 17:39:11;;;;;;;9.50;2.17;;;;;;;;;;5071722;28;20017;-86
2022/08/11 17:50:10;;;;;;;3.92;2.00;;;;;;;;;;5073256;28;20044;-85
2022/08/11 18:00:53;;;;;;;7.05;2.42;;;;;;;;;;5064864;28;20044;-85
2022/08/11 18:03:31;;;;;;;3.17;2.00;;;;;;;;;;5064736;28;20492;-84
2022/08/11 18:06:00;;;;;;;6.57;2.05;;;;;;;;;;5066434;28;20138;-84
